sensor_id;sensor_type;location;lat;lon;timestamp;P1;durP1;ratioP1;P2;durP2;ratioP2
43696;SDS011;29301;47.620;19.560;2022-11-11T00:01:00;0.80;;;0.60;;
43696;SDS011;29301;47.620;19.560;2022-11-11T00:05:52;0.80;;;0.52;;
43696;SDS011;29301;47.620;19.560;2022-11-11T00:08:18;0.70;;;0.60;;
43696;SDS011;29301;47.620;19.560;2022-11-11T00:10:44;0.80;;;0.57;;
43696;SDS011;29301;47.620;19.560;2022-11-11T00:13:10;0.80;;;0.60;;
43696;SDS011;29301;47.620;19.560;2022-11-11T00:15:37;0.70;;;0.50;;
43696;SDS011;29301;47.620;19.560;2022-11-11T00:18:03;0.70;;;0.52;;
43696;SDS011;29301;47.620;19.560;2022-11-11T00:20:48;0.80;;;0.60;;
43696;SDS011;29301;47.620;19.560;2022-11-11T00:23:32;0.70;;;0.60;;
43696;SDS011;29301;47.620;19.560;2022-11-11T00:26:16;0.80;;;0.60;;
43696;SDS011;29301;47.620;19.560;2022-11-11T00:28:42;0.88;;;0.60;;
43696;SDS011;29301;47.620;19.560;2022-11-11T00:31:09;0.70;;;0.50;;
43696;SDS011;29301;47.620;19.560;2022-11-11T00:33:36;0.70;;;0.60;;
43696;SDS011;29301;47.620;19.560;2022-11-11T00:36:02;0.80;;;0.60;;
43696;SDS011;29301;47.620;19.560;2022-11-11T00:38:28;0.80;;;0.60;;
43696;SDS011;29301;47.620;19.560;2022-11-11T00:41:09;0.80;;;0.60;;
43696;SDS011;29301;47.620;19.560;2022-11-11T00:43:36;0.80;;;0.60;;
43696;SDS011;29301;47.620;19.560;2022-11-11T00:46:02;0.70;;;0.50;;
43696;SDS011;29301;47.620;19.560;2022-11-11T00:48:46;0.80;;;0.55;;
43696;SDS011;29301;47.620;19.560;2022-11-11T00:51:30;0.80;;;0.60;;
43696;SDS011;29301;47.620;19.560;2022-11-11T00:53:56;0.80;;;0.60;;
43696;SDS011;29301;47.620;19.560;2022-11-11T00:56:22;0.80;;;0.60;;
43696;SDS011;29301;47.620;19.560;2022-11-11T00:58:48;0.70;;;0.50;;
43696;SDS011;29301;47.620;19.560;2022-11-11T01:01:14;0.80;;;0.50;;
43696;SDS011;29301;47.620;19.560;2022-11-11T01:03:41;0.80;;;0.60;;
43696;SDS011;29301;47.620;19.560;2022-11-11T01:06:06;0.70;;;0.50;;
43696;SDS011;29301;47.620;19.560;2022-11-11T01:08:35;0.80;;;0.60;;
43696;SDS011;29301;47.620;19.560;2022-11-11T01:11:01;0.80;;;0.60;;
43696;SDS011;29301;47.620;19.560;2022-11-11T01:13:28;0.70;;;0.50;;
43696;SDS011;29301;47.620;19.560;2022-11-11T01:18:26;0.80;;;0.60;;
43696;SDS011;29301;47.620;19.560;2022-11-11T01:20:59;0.80;;;0.60;;
43696;SDS011;29301;47.620;19.560;2022-11-11T01:23:27;0.70;;;0.60;;
43696;SDS011;29301;47.620;19.560;2022-11-11T01:25:53;0.70;;;0.57;;
43696;SDS011;29301;47.620;19.560;2022-11-11T01:28:24;0.70;;;0.50;;
43696;SDS011;29301;47.620;19.560;2022-11-11T01:30:50;0.80;;;0.60;;
43696;SDS011;29301;47.620;19.560;2022-11-11T01:33:15;0.80;;;0.70;;
43696;SDS011;29301;47.620;19.560;2022-11-11T01:35:41;0.88;;;0.60;;
43696;SDS011;29301;47.620;19.560;2022-11-11T01:38:07;0.80;;;0.60;;
43696;SDS011;29301;47.620;19.560;2022-11-11T01:40:41;0.88;;;0.60;;
43696;SDS011;29301;47.620;19.560;2022-11-11T01:48:28;0.80;;;0.60;;
43696;SDS011;29301;47.620;19.560;2022-11-11T01:54:21;1.00;;;0.70;;
43696;SDS011;29301;47.620;19.560;2022-11-11T01:56:55;0.90;;;0.60;;
43696;SDS011;29301;47.620;19.560;2022-11-11T01:59:24;0.80;;;0.60;;
43696;SDS011;29301;47.620;19.560;2022-11-11T02:01:52;0.80;;;0.60;;
43696;SDS011;29301;47.620;19.560;2022-11-11T02:04:17;0.85;;;0.60;;
43696;SDS011;29301;47.620;19.560;2022-11-11T02:07:03;0.70;;;0.60;;
43696;SDS011;29301;47.620;19.560;2022-11-11T02:09:31;0.80;;;0.60;;
43696;SDS011;29301;47.620;19.560;2022-11-11T02:11:57;0.80;;;0.52;;
43696;SDS011;29301;47.620;19.560;2022-11-11T02:14:47;0.85;;;0.60;;
43696;SDS011;29301;47.620;19.560;2022-11-11T02:17:16;0.80;;;0.60;;
43696;SDS011;29301;47.620;19.560;2022-11-11T02:20:01;0.80;;;0.60;;
43696;SDS011;29301;47.620;19.560;2022-11-11T02:25:10;0.85;;;0.60;;
43696;SDS011;29301;47.620;19.560;2022-11-11T02:27:39;0.85;;;0.60;;
43696;SDS011;29301;47.620;19.560;2022-11-11T02:30:09;0.80;;;0.60;;
43696;SDS011;29301;47.620;19.560;2022-11-11T02:32:44;0.85;;;0.60;;
43696;SDS011;29301;47.620;19.560;2022-11-11T02:35:12;0.80;;;0.60;;
43696;SDS011;29301;47.620;19.560;2022-11-11T02:37:45;0.80;;;0.60;;
43696;SDS011;29301;47.620;19.560;2022-11-11T02:42:56;1.00;;;0.70;;
43696;SDS011;29301;47.620;19.560;2022-11-11T02:45:22;0.80;;;0.60;;
43696;SDS011;29301;47.620;19.560;2022-11-11T02:47:48;0.80;;;0.60;;
43696;SDS011;29301;47.620;19.560;2022-11-11T02:50:14;0.80;;;0.60;;
43696;SDS011;29301;47.620;19.560;2022-11-11T02:52:39;0.80;;;0.60;;
43696;SDS011;29301;47.620;19.560;2022-11-11T02:55:05;0.80;;;0.60;;
43696;SDS011;29301;47.620;19.560;2022-11-11T02:57:31;0.80;;;0.60;;
43696;SDS011;29301;47.620;19.560;2022-11-11T02:59:58;0.80;;;0.55;;
43696;SDS011;29301;47.620;19.560;2022-11-11T03:02:25;0.80;;;0.57;;
43696;SDS011;29301;47.620;19.560;2022-11-11T03:04:55;0.80;;;0.60;;
43696;SDS011;29301;47.620;19.560;2022-11-11T03:07:21;0.90;;;0.60;;
43696;SDS011;29301;47.620;19.560;2022-11-11T03:09:48;0.90;;;0.63;;
43696;SDS011;29301;47.620;19.560;2022-11-11T03:12:14;0.70;;;0.60;;
43696;SDS011;29301;47.620;19.560;2022-11-11T03:14:40;0.88;;;0.60;;
43696;SDS011;29301;47.620;19.560;2022-11-11T03:17:06;0.90;;;0.60;;
43696;SDS011;29301;47.620;19.560;2022-11-11T03:19:50;0.80;;;0.60;;
43696;SDS011;29301;47.620;19.560;2022-11-11T03:22:16;0.80;;;0.60;;
43696;SDS011;29301;47.620;19.560;2022-11-11T03:24:41;0.90;;;0.60;;
43696;SDS011;29301;47.620;19.560;2022-11-11T03:27:25;0.80;;;0.60;;
43696;SDS011;29301;47.620;19.560;2022-11-11T03:29:51;0.80;;;0.60;;
43696;SDS011;29301;47.620;19.560;2022-11-11T03:32:17;0.93;;;0.70;;
43696;SDS011;29301;47.620;19.560;2022-11-11T03:34:43;0.90;;;0.70;;
43696;SDS011;29301;47.620;19.560;2022-11-11T03:37:09;0.90;;;0.60;;
43696;SDS011;29301;47.620;19.560;2022-11-11T03:39:54;0.85;;;0.70;;
43696;SDS011;29301;47.620;19.560;2022-11-11T03:42:19;0.85;;;0.60;;
43696;SDS011;29301;47.620;19.560;2022-11-11T03:44:45;0.85;;;0.60;;
43696;SDS011;29301;47.620;19.560;2022-11-11T03:47:11;0.80;;;0.60;;
43696;SDS011;29301;47.620;19.560;2022-11-11T03:49:37;0.90;;;0.70;;
43696;SDS011;29301;47.620;19.560;2022-11-11T03:52:02;0.70;;;0.60;;
43696;SDS011;29301;47.620;19.560;2022-11-11T03:54:28;0.90;;;0.70;;
43696;SDS011;29301;47.620;19.560;2022-11-11T03:56:54;0.90;;;0.60;;
43696;SDS011;29301;47.620;19.560;2022-11-11T03:59:42;0.80;;;0.60;;
43696;SDS011;29301;47.620;19.560;2022-11-11T04:02:10;0.90;;;0.60;;
43696;SDS011;29301;47.620;19.560;2022-11-11T04:04:56;0.90;;;0.60;;
43696;SDS011;29301;47.620;19.560;2022-11-11T04:07:40;0.90;;;0.65;;
43696;SDS011;29301;47.620;19.560;2022-11-11T04:10:24;0.85;;;0.60;;
43696;SDS011;29301;47.620;19.560;2022-11-11T04:12:50;1.00;;;0.70;;
43696;SDS011;29301;47.620;19.560;2022-11-11T04:15:35;0.98;;;0.70;;
43696;SDS011;29301;47.620;19.560;2022-11-11T04:18:19;0.90;;;0.70;;
43696;SDS011;29301;47.620;19.560;2022-11-11T04:21:06;0.80;;;0.60;;
43696;SDS011;29301;47.620;19.560;2022-11-11T04:23:51;1.00;;;0.70;;
43696;SDS011;29301;47.620;19.560;2022-11-11T04:26:16;0.90;;;0.70;;
43696;SDS011;29301;47.620;19.560;2022-11-11T04:28:42;0.80;;;0.60;;
43696;SDS011;29301;47.620;19.560;2022-11-11T04:31:26;0.90;;;0.65;;
43696;SDS011;29301;47.620;19.560;2022-11-11T04:33:52;0.90;;;0.70;;
43696;SDS011;29301;47.620;19.560;2022-11-11T04:36:17;0.90;;;0.60;;
43696;SDS011;29301;47.620;19.560;2022-11-11T04:38:43;1.10;;;0.70;;
43696;SDS011;29301;47.620;19.560;2022-11-11T04:41:27;1.10;;;0.70;;
43696;SDS011;29301;47.620;19.560;2022-11-11T04:43:53;0.98;;;0.70;;
43696;SDS011;29301;47.620;19.560;2022-11-11T04:46:45;1.00;;;0.70;;
43696;SDS011;29301;47.620;19.560;2022-11-11T04:49:10;1.10;;;0.70;;
43696;SDS011;29301;47.620;19.560;2022-11-11T04:51:36;1.00;;;0.70;;
43696;SDS011;29301;47.620;19.560;2022-11-11T04:54:20;0.90;;;0.60;;
43696;SDS011;29301;47.620;19.560;2022-11-11T04:56:46;0.90;;;0.70;;
43696;SDS011;29301;47.620;19.560;2022-11-11T04:59:11;0.98;;;0.70;;
43696;SDS011;29301;47.620;19.560;2022-11-11T05:01:40;0.90;;;0.60;;
43696;SDS011;29301;47.620;19.560;2022-11-11T05:04:25;0.85;;;0.60;;
43696;SDS011;29301;47.620;19.560;2022-11-11T05:06:50;0.80;;;0.60;;
43696;SDS011;29301;47.620;19.560;2022-11-11T05:09:35;0.90;;;0.63;;
43696;SDS011;29301;47.620;19.560;2022-11-11T05:12:01;0.90;;;0.70;;
43696;SDS011;29301;47.620;19.560;2022-11-11T05:14:26;1.00;;;0.70;;
43696;SDS011;29301;47.620;19.560;2022-11-11T05:17:10;0.80;;;0.60;;
43696;SDS011;29301;47.620;19.560;2022-11-11T05:19:54;0.90;;;0.70;;
43696;SDS011;29301;47.620;19.560;2022-11-11T05:22:39;0.80;;;0.60;;
43696;SDS011;29301;47.620;19.560;2022-11-11T05:25:07;0.80;;;0.60;;
43696;SDS011;29301;47.620;19.560;2022-11-11T05:27:57;0.80;;;0.60;;
43696;SDS011;29301;47.620;19.560;2022-11-11T05:30:24;0.80;;;0.60;;
43696;SDS011;29301;47.620;19.560;2022-11-11T05:32:50;0.93;;;0.60;;
43696;SDS011;29301;47.620;19.560;2022-11-11T05:35:16;0.88;;;0.60;;
43696;SDS011;29301;47.620;19.560;2022-11-11T05:37:42;0.88;;;0.60;;
43696;SDS011;29301;47.620;19.560;2022-11-11T05:40:08;0.80;;;0.60;;
43696;SDS011;29301;47.620;19.560;2022-11-11T05:42:37;0.85;;;0.60;;
43696;SDS011;29301;47.620;19.560;2022-11-11T05:45:05;0.80;;;0.60;;
43696;SDS011;29301;47.620;19.560;2022-11-11T05:47:31;0.90;;;0.70;;
43696;SDS011;29301;47.620;19.560;2022-11-11T05:49:57;0.90;;;0.60;;
43696;SDS011;29301;47.620;19.560;2022-11-11T05:52:22;0.70;;;0.60;;
43696;SDS011;29301;47.620;19.560;2022-11-11T05:54:48;0.85;;;0.60;;
43696;SDS011;29301;47.620;19.560;2022-11-11T05:57:14;0.90;;;0.60;;
43696;SDS011;29301;47.620;19.560;2022-11-11T05:59:39;0.80;;;0.60;;
43696;SDS011;29301;47.620;19.560;2022-11-11T06:02:05;0.80;;;0.60;;
43696;SDS011;29301;47.620;19.560;2022-11-11T06:04:31;0.90;;;0.60;;
43696;SDS011;29301;47.620;19.560;2022-11-11T06:06:59;0.80;;;0.60;;
43696;SDS011;29301;47.620;19.560;2022-11-11T06:09:24;0.80;;;0.60;;
43696;SDS011;29301;47.620;19.560;2022-11-11T06:11:50;1.00;;;0.70;;
43696;SDS011;29301;47.620;19.560;2022-11-11T06:14:16;1.00;;;0.70;;
43696;SDS011;29301;47.620;19.560;2022-11-11T06:16:42;1.00;;;0.70;;
43696;SDS011;29301;47.620;19.560;2022-11-11T06:19:07;0.90;;;0.68;;
43696;SDS011;29301;47.620;19.560;2022-11-11T06:21:33;0.90;;;0.60;;
43696;SDS011;29301;47.620;19.560;2022-11-11T06:24:19;0.80;;;0.60;;
43696;SDS011;29301;47.620;19.560;2022-11-11T06:26:44;0.90;;;0.70;;
43696;SDS011;29301;47.620;19.560;2022-11-11T06:29:10;1.08;;;0.70;;
43696;SDS011;29301;47.620;19.560;2022-11-11T06:31:36;0.82;;;0.63;;
43696;SDS011;29301;47.620;19.560;2022-11-11T06:34:01;1.00;;;0.70;;
43696;SDS011;29301;47.620;19.560;2022-11-11T06:36:27;1.00;;;0.70;;
43696;SDS011;29301;47.620;19.560;2022-11-11T06:38:53;0.90;;;0.60;;
43696;SDS011;29301;47.620;19.560;2022-11-11T06:41:19;1.00;;;0.70;;
43696;SDS011;29301;47.620;19.560;2022-11-11T06:43:48;1.00;;;0.60;;
43696;SDS011;29301;47.620;19.560;2022-11-11T06:46:21;0.80;;;0.60;;
43696;SDS011;29301;47.620;19.560;2022-11-11T06:48:48;0.85;;;0.60;;
43696;SDS011;29301;47.620;19.560;2022-11-11T06:51:14;0.90;;;0.70;;
43696;SDS011;29301;47.620;19.560;2022-11-11T06:53:41;1.00;;;0.68;;
43696;SDS011;29301;47.620;19.560;2022-11-11T06:56:07;0.90;;;0.70;;
43696;SDS011;29301;47.620;19.560;2022-11-11T06:58:33;1.00;;;0.70;;
43696;SDS011;29301;47.620;19.560;2022-11-11T07:01:02;1.00;;;0.70;;
43696;SDS011;29301;47.620;19.560;2022-11-11T07:03:32;1.00;;;0.70;;
43696;SDS011;29301;47.620;19.560;2022-11-11T07:06:01;0.93;;;0.65;;
43696;SDS011;29301;47.620;19.560;2022-11-11T07:08:28;0.88;;;0.70;;
43696;SDS011;29301;47.620;19.560;2022-11-11T07:10:54;1.00;;;0.60;;
43696;SDS011;29301;47.620;19.560;2022-11-11T07:13:20;1.08;;;0.70;;
43696;SDS011;29301;47.620;19.560;2022-11-11T07:15:45;0.85;;;0.60;;
43696;SDS011;29301;47.620;19.560;2022-11-11T07:18:11;0.80;;;0.60;;
43696;SDS011;29301;47.620;19.560;2022-11-11T07:20:38;0.80;;;0.60;;
43696;SDS011;29301;47.620;19.560;2022-11-11T07:23:04;1.02;;;0.70;;
43696;SDS011;29301;47.620;19.560;2022-11-11T07:25:30;0.93;;;0.63;;
43696;SDS011;29301;47.620;19.560;2022-11-11T07:27:55;0.90;;;0.60;;
43696;SDS011;29301;47.620;19.560;2022-11-11T07:30:21;0.85;;;0.60;;
43696;SDS011;29301;47.620;19.560;2022-11-11T07:32:48;0.80;;;0.60;;
43696;SDS011;29301;47.620;19.560;2022-11-11T07:35:15;0.80;;;0.60;;
43696;SDS011;29301;47.620;19.560;2022-11-11T07:37:42;0.80;;;0.50;;
43696;SDS011;29301;47.620;19.560;2022-11-11T07:40:09;0.70;;;0.50;;
43696;SDS011;29301;47.620;19.560;2022-11-11T07:42:37;0.70;;;0.50;;
43696;SDS011;29301;47.620;19.560;2022-11-11T07:45:04;0.70;;;0.50;;
43696;SDS011;29301;47.620;19.560;2022-11-11T07:47:31;0.80;;;0.60;;
43696;SDS011;29301;47.620;19.560;2022-11-11T07:49:58;0.82;;;0.60;;
43696;SDS011;29301;47.620;19.560;2022-11-11T07:52:25;0.70;;;0.50;;
43696;SDS011;29301;47.620;19.560;2022-11-11T07:54:51;0.80;;;0.50;;
43696;SDS011;29301;47.620;19.560;2022-11-11T07:57:16;0.70;;;0.50;;
43696;SDS011;29301;47.620;19.560;2022-11-11T07:59:42;0.70;;;0.50;;
43696;SDS011;29301;47.620;19.560;2022-11-11T08:02:11;0.80;;;0.50;;
43696;SDS011;29301;47.620;19.560;2022-11-11T08:04:37;0.70;;;0.50;;
43696;SDS011;29301;47.620;19.560;2022-11-11T08:07:03;0.70;;;0.50;;
43696;SDS011;29301;47.620;19.560;2022-11-11T08:09:29;0.77;;;0.50;;
43696;SDS011;29301;47.620;19.560;2022-11-11T08:11:55;0.70;;;0.50;;
43696;SDS011;29301;47.620;19.560;2022-11-11T08:14:39;0.70;;;0.50;;
43696;SDS011;29301;47.620;19.560;2022-11-11T08:17:05;0.80;;;0.50;;
43696;SDS011;29301;47.620;19.560;2022-11-11T08:19:31;0.80;;;0.52;;
43696;SDS011;29301;47.620;19.560;2022-11-11T08:21:56;0.70;;;0.50;;
43696;SDS011;29301;47.620;19.560;2022-11-11T08:24:22;0.70;;;0.50;;
43696;SDS011;29301;47.620;19.560;2022-11-11T08:26:48;0.70;;;0.50;;
43696;SDS011;29301;47.620;19.560;2022-11-11T08:29:14;0.70;;;0.40;;
43696;SDS011;29301;47.620;19.560;2022-11-11T08:31:40;0.70;;;0.50;;
43696;SDS011;29301;47.620;19.560;2022-11-11T08:34:05;0.60;;;0.40;;
43696;SDS011;29301;47.620;19.560;2022-11-11T08:36:31;0.70;;;0.50;;
43696;SDS011;29301;47.620;19.560;2022-11-11T08:38:57;0.70;;;0.50;;
43696;SDS011;29301;47.620;19.560;2022-11-11T08:41:23;0.70;;;0.50;;
43696;SDS011;29301;47.620;19.560;2022-11-11T08:43:52;0.70;;;0.40;;
43696;SDS011;29301;47.620;19.560;2022-11-11T08:46:19;0.70;;;0.50;;
43696;SDS011;29301;47.620;19.560;2022-11-11T08:48:45;0.70;;;0.50;;
43696;SDS011;29301;47.620;19.560;2022-11-11T08:51:11;0.80;;;0.50;;
43696;SDS011;29301;47.620;19.560;2022-11-11T08:53:38;0.70;;;0.45;;
43696;SDS011;29301;47.620;19.560;2022-11-11T08:56:04;0.80;;;0.50;;
43696;SDS011;29301;47.620;19.560;2022-11-11T08:58:31;0.70;;;0.50;;
43696;SDS011;29301;47.620;19.560;2022-11-11T09:00:56;0.60;;;0.40;;
43696;SDS011;29301;47.620;19.560;2022-11-11T09:03:22;0.80;;;0.50;;
43696;SDS011;29301;47.620;19.560;2022-11-11T09:05:48;0.80;;;0.50;;
43696;SDS011;29301;47.620;19.560;2022-11-11T09:08:14;0.68;;;0.45;;
43696;SDS011;29301;47.620;19.560;2022-11-11T09:10:40;0.70;;;0.50;;
43696;SDS011;29301;47.620;19.560;2022-11-11T09:13:05;0.70;;;0.40;;
43696;SDS011;29301;47.620;19.560;2022-11-11T09:15:31;0.68;;;0.47;;
43696;SDS011;29301;47.620;19.560;2022-11-11T09:17:57;0.70;;;0.40;;
43696;SDS011;29301;47.620;19.560;2022-11-11T09:20:23;0.50;;;0.40;;
43696;SDS011;29301;47.620;19.560;2022-11-11T09:22:50;0.68;;;0.43;;
43696;SDS011;29301;47.620;19.560;2022-11-11T09:25:17;0.52;;;0.40;;
43696;SDS011;29301;47.620;19.560;2022-11-11T09:27:42;0.40;;;0.40;;
43696;SDS011;29301;47.620;19.560;2022-11-11T09:30:08;0.50;;;0.40;;
43696;SDS011;29301;47.620;19.560;2022-11-11T09:32:35;0.60;;;0.40;;
43696;SDS011;29301;47.620;19.560;2022-11-11T09:35:01;0.60;;;0.40;;
43696;SDS011;29301;47.620;19.560;2022-11-11T09:37:28;0.60;;;0.40;;
43696;SDS011;29301;47.620;19.560;2022-11-11T09:39:53;0.50;;;0.40;;
43696;SDS011;29301;47.620;19.560;2022-11-11T09:50:24;0.70;;;0.50;;
43696;SDS011;29301;47.620;19.560;2022-11-11T09:52:55;0.68;;;0.50;;
43696;SDS011;29301;47.620;19.560;2022-11-11T09:58:20;0.52;;;0.40;;
43696;SDS011;29301;47.620;19.560;2022-11-11T10:00:50;0.65;;;0.40;;
43696;SDS011;29301;47.620;19.560;2022-11-11T10:03:24;0.50;;;0.40;;
43696;SDS011;29301;47.620;19.560;2022-11-11T10:05:53;0.70;;;0.50;;
43696;SDS011;29301;47.620;19.560;2022-11-11T10:08:28;0.40;;;0.30;;
43696;SDS011;29301;47.620;19.560;2022-11-11T10:10:57;0.55;;;0.40;;
43696;SDS011;29301;47.620;19.560;2022-11-11T10:13:33;0.50;;;0.40;;
43696;SDS011;29301;47.620;19.560;2022-11-11T10:18:51;0.52;;;0.40;;
43696;SDS011;29301;47.620;19.560;2022-11-11T10:21:25;0.40;;;0.40;;
43696;SDS011;29301;47.620;19.560;2022-11-11T10:24:15;0.43;;;0.40;;
43696;SDS011;29301;47.620;19.560;2022-11-11T10:26:46;0.40;;;0.40;;
43696;SDS011;29301;47.620;19.560;2022-11-11T10:29:19;0.52;;;0.40;;
43696;SDS011;29301;47.620;19.560;2022-11-11T10:31:54;0.63;;;0.43;;
43696;SDS011;29301;47.620;19.560;2022-11-11T10:34:36;0.40;;;0.40;;
43696;SDS011;29301;47.620;19.560;2022-11-11T10:37:02;0.40;;;0.30;;
43696;SDS011;29301;47.620;19.560;2022-11-11T10:39:33;0.50;;;0.40;;
43696;SDS011;29301;47.620;19.560;2022-11-11T10:42:29;0.40;;;0.30;;
43696;SDS011;29301;47.620;19.560;2022-11-11T10:44:55;0.40;;;0.30;;
43696;SDS011;29301;47.620;19.560;2022-11-11T10:47:59;0.70;;;0.50;;
43696;SDS011;29301;47.620;19.560;2022-11-11T10:50:27;0.80;;;0.50;;
43696;SDS011;29301;47.620;19.560;2022-11-11T10:55:35;0.77;;;0.50;;
43696;SDS011;29301;47.620;19.560;2022-11-11T10:58:27;0.50;;;0.40;;
43696;SDS011;29301;47.620;19.560;2022-11-11T11:00:56;0.55;;;0.40;;
43696;SDS011;29301;47.620;19.560;2022-11-11T11:08:34;0.40;;;0.40;;
43696;SDS011;29301;47.620;19.560;2022-11-11T11:11:06;0.52;;;0.43;;
43696;SDS011;29301;47.620;19.560;2022-11-11T11:13:53;0.50;;;0.40;;
43696;SDS011;29301;47.620;19.560;2022-11-11T11:16:46;0.40;;;0.30;;
43696;SDS011;29301;47.620;19.560;2022-11-11T11:21:47;0.50;;;0.40;;
43696;SDS011;29301;47.620;19.560;2022-11-11T11:24:30;0.40;;;0.40;;
43696;SDS011;29301;47.620;19.560;2022-11-11T11:26:58;0.43;;;0.40;;
43696;SDS011;29301;47.620;19.560;2022-11-11T11:29:30;0.50;;;0.40;;
43696;SDS011;29301;47.620;19.560;2022-11-11T11:34:41;0.50;;;0.40;;
43696;SDS011;29301;47.620;19.560;2022-11-11T11:37:10;0.45;;;0.40;;
43696;SDS011;29301;47.620;19.560;2022-11-11T11:39:37;0.40;;;0.30;;
43696;SDS011;29301;47.620;19.560;2022-11-11T11:42:04;0.50;;;0.40;;
43696;SDS011;29301;47.620;19.560;2022-11-11T11:44:32;0.50;;;0.40;;
43696;SDS011;29301;47.620;19.560;2022-11-11T11:47:05;0.50;;;0.40;;
43696;SDS011;29301;47.620;19.560;2022-11-11T11:55:13;0.40;;;0.30;;
43696;SDS011;29301;47.620;19.560;2022-11-11T12:05:37;0.40;;;0.40;;
43696;SDS011;29301;47.620;19.560;2022-11-11T12:08:09;0.65;;;0.50;;
43696;SDS011;29301;47.620;19.560;2022-11-11T12:21:50;0.40;;;0.30;;
43696;SDS011;29301;47.620;19.560;2022-11-11T12:24:49;0.47;;;0.40;;
43696;SDS011;29301;47.620;19.560;2022-11-11T12:30:25;0.52;;;0.40;;
43696;SDS011;29301;47.620;19.560;2022-11-11T12:44:02;0.40;;;0.32;;
43696;SDS011;29301;47.620;19.560;2022-11-11T12:46:49;0.45;;;0.40;;
43696;SDS011;29301;47.620;19.560;2022-11-11T12:55:29;0.50;;;0.40;;
43696;SDS011;29301;47.620;19.560;2022-11-11T12:58:09;0.40;;;0.30;;
43696;SDS011;29301;47.620;19.560;2022-11-11T13:00:53;0.50;;;0.40;;
43696;SDS011;29301;47.620;19.560;2022-11-11T13:06:41;0.60;;;0.40;;
43696;SDS011;29301;47.620;19.560;2022-11-11T13:12:11;0.43;;;0.40;;
43696;SDS011;29301;47.620;19.560;2022-11-11T13:14:50;0.50;;;0.40;;
43696;SDS011;29301;47.620;19.560;2022-11-11T13:17:22;0.40;;;0.32;;
43696;SDS011;29301;47.620;19.560;2022-11-11T13:19:55;0.40;;;0.40;;
43696;SDS011;29301;47.620;19.560;2022-11-11T13:22:24;0.50;;;0.40;;
43696;SDS011;29301;47.620;19.560;2022-11-11T13:24:52;0.50;;;0.40;;
43696;SDS011;29301;47.620;19.560;2022-11-11T13:27:27;0.50;;;0.40;;
43696;SDS011;29301;47.620;19.560;2022-11-11T13:30:01;0.60;;;0.40;;
43696;SDS011;29301;47.620;19.560;2022-11-11T13:32:39;0.60;;;0.40;;
43696;SDS011;29301;47.620;19.560;2022-11-11T13:35:54;0.47;;;0.40;;
43696;SDS011;29301;47.620;19.560;2022-11-11T13:38:08;0.45;;;0.40;;
43696;SDS011;29301;47.620;19.560;2022-11-11T13:40:46;0.65;;;0.50;;
43696;SDS011;29301;47.620;19.560;2022-11-11T13:44:03;0.63;;;0.45;;
43696;SDS011;29301;47.620;19.560;2022-11-11T13:48:51;0.50;;;0.40;;
43696;SDS011;29301;47.620;19.560;2022-11-11T13:53:48;0.70;;;0.40;;
43696;SDS011;29301;47.620;19.560;2022-11-11T13:59:07;0.70;;;0.50;;
43696;SDS011;29301;47.620;19.560;2022-11-11T14:01:45;0.55;;;0.40;;
43696;SDS011;29301;47.620;19.560;2022-11-11T14:04:11;0.52;;;0.40;;
43696;SDS011;29301;47.620;19.560;2022-11-11T14:06:47;0.40;;;0.40;;
43696;SDS011;29301;47.620;19.560;2022-11-11T14:12:22;0.40;;;0.30;;
43696;SDS011;29301;47.620;19.560;2022-11-11T14:15:37;0.55;;;0.40;;
43696;SDS011;29301;47.620;19.560;2022-11-11T14:20:43;0.50;;;0.40;;
43696;SDS011;29301;47.620;19.560;2022-11-11T14:25:45;0.40;;;0.32;;
43696;SDS011;29301;47.620;19.560;2022-11-11T14:28:22;0.57;;;0.40;;
43696;SDS011;29301;47.620;19.560;2022-11-11T14:30:51;0.50;;;0.40;;
43696;SDS011;29301;47.620;19.560;2022-11-11T14:38:41;0.50;;;0.40;;
43696;SDS011;29301;47.620;19.560;2022-11-11T14:57:47;0.50;;;0.40;;
43696;SDS011;29301;47.620;19.560;2022-11-11T15:02:52;0.40;;;0.40;;
43696;SDS011;29301;47.620;19.560;2022-11-11T15:08:44;0.50;;;0.40;;
43696;SDS011;29301;47.620;19.560;2022-11-11T15:13:56;0.60;;;0.40;;
43696;SDS011;29301;47.620;19.560;2022-11-11T15:22:06;0.50;;;0.40;;
43696;SDS011;29301;47.620;19.560;2022-11-11T15:27:31;0.40;;;0.40;;
43696;SDS011;29301;47.620;19.560;2022-11-11T15:35:27;0.60;;;0.40;;
43696;SDS011;29301;47.620;19.560;2022-11-11T15:38:00;0.47;;;0.40;;
43696;SDS011;29301;47.620;19.560;2022-11-11T15:40:40;0.60;;;0.40;;
43696;SDS011;29301;47.620;19.560;2022-11-11T15:43:15;0.50;;;0.40;;
43696;SDS011;29301;47.620;19.560;2022-11-11T15:45:54;0.52;;;0.40;;
43696;SDS011;29301;47.620;19.560;2022-11-11T15:48:37;0.60;;;0.40;;
43696;SDS011;29301;47.620;19.560;2022-11-11T15:51:16;0.60;;;0.40;;
43696;SDS011;29301;47.620;19.560;2022-11-11T15:53:42;0.55;;;0.40;;
43696;SDS011;29301;47.620;19.560;2022-11-11T15:56:08;0.70;;;0.50;;
43696;SDS011;29301;47.620;19.560;2022-11-11T15:58:34;0.60;;;0.40;;
43696;SDS011;29301;47.620;19.560;2022-11-11T16:01:01;0.60;;;0.40;;
43696;SDS011;29301;47.620;19.560;2022-11-11T16:03:30;0.63;;;0.40;;
43696;SDS011;29301;47.620;19.560;2022-11-11T16:06:04;0.60;;;0.43;;
43696;SDS011;29301;47.620;19.560;2022-11-11T16:08:32;0.60;;;0.40;;
43696;SDS011;29301;47.620;19.560;2022-11-11T16:10:59;0.60;;;0.40;;
43696;SDS011;29301;47.620;19.560;2022-11-11T16:13:32;0.60;;;0.50;;
43696;SDS011;29301;47.620;19.560;2022-11-11T16:16:20;0.50;;;0.40;;
43696;SDS011;29301;47.620;19.560;2022-11-11T16:21:32;0.50;;;0.40;;
43696;SDS011;29301;47.620;19.560;2022-11-11T16:24:00;0.70;;;0.40;;
43696;SDS011;29301;47.620;19.560;2022-11-11T16:26:27;0.60;;;0.40;;
43696;SDS011;29301;47.620;19.560;2022-11-11T16:28:56;0.70;;;0.50;;
43696;SDS011;29301;47.620;19.560;2022-11-11T16:31:56;0.60;;;0.40;;
43696;SDS011;29301;47.620;19.560;2022-11-11T16:39:26;0.70;;;0.50;;
43696;SDS011;29301;47.620;19.560;2022-11-11T16:41:56;0.68;;;0.40;;
43696;SDS011;29301;47.620;19.560;2022-11-11T16:52:58;0.80;;;0.50;;
43696;SDS011;29301;47.620;19.560;2022-11-11T16:57:59;0.70;;;0.50;;
43696;SDS011;29301;47.620;19.560;2022-11-11T17:00:27;0.70;;;0.50;;
43696;SDS011;29301;47.620;19.560;2022-11-11T17:05:45;0.80;;;0.50;;
43696;SDS011;29301;47.620;19.560;2022-11-11T17:08:26;0.70;;;0.50;;
43696;SDS011;29301;47.620;19.560;2022-11-11T17:10:52;0.52;;;0.40;;
43696;SDS011;29301;47.620;19.560;2022-11-11T17:13:18;0.70;;;0.50;;
43696;SDS011;29301;47.620;19.560;2022-11-11T17:15:44;0.70;;;0.40;;
43696;SDS011;29301;47.620;19.560;2022-11-11T17:18:09;0.70;;;0.40;;
43696;SDS011;29301;47.620;19.560;2022-11-11T17:20:38;0.60;;;0.40;;
43696;SDS011;29301;47.620;19.560;2022-11-11T17:23:04;0.70;;;0.50;;
43696;SDS011;29301;47.620;19.560;2022-11-11T17:25:33;0.60;;;0.40;;
43696;SDS011;29301;47.620;19.560;2022-11-11T17:27:58;0.70;;;0.50;;
43696;SDS011;29301;47.620;19.560;2022-11-11T17:30:24;0.65;;;0.40;;
43696;SDS011;29301;47.620;19.560;2022-11-11T17:32:50;0.68;;;0.50;;
43696;SDS011;29301;47.620;19.560;2022-11-11T17:35:15;0.70;;;0.40;;
43696;SDS011;29301;47.620;19.560;2022-11-11T17:37:41;0.70;;;0.40;;
43696;SDS011;29301;47.620;19.560;2022-11-11T17:40:08;0.70;;;0.50;;
43696;SDS011;29301;47.620;19.560;2022-11-11T17:42:35;0.70;;;0.50;;
43696;SDS011;29301;47.620;19.560;2022-11-11T17:45:02;0.70;;;0.50;;
43696;SDS011;29301;47.620;19.560;2022-11-11T17:47:29;0.68;;;0.40;;
43696;SDS011;29301;47.620;19.560;2022-11-11T17:49:56;0.70;;;0.50;;
43696;SDS011;29301;47.620;19.560;2022-11-11T17:52:22;0.70;;;0.50;;